sensor_id;sensor_type;location;lat;lon;timestamp;temperature;humidity
3690;DHT22;1861;50.240;8.596;2022-10-16T00:00:58;15.90;99.90
3690;DHT22;1861;50.240;8.596;2022-10-16T00:03:26;15.80;99.90
3690;DHT22;1861;50.240;8.596;2022-10-16T00:05:58;15.80;99.90
3690;DHT22;1861;50.240;8.596;2022-10-16T00:08:27;15.80;99.90
3690;DHT22;1861;50.240;8.596;2022-10-16T00:11:01;15.80;99.90
3690;DHT22;1861;50.240;8.596;2022-10-16T00:13:31;15.80;99.90
3690;DHT22;1861;50.240;8.596;2022-10-16T00:16:00;15.80;99.90
3690;DHT22;1861;50.240;8.596;2022-10-16T00:18:29;15.80;99.90
3690;DHT22;1861;50.240;8.596;2022-10-16T00:21:02;15.80;99.90
3690;DHT22;1861;50.240;8.596;2022-10-16T00:23:50;15.80;99.90
3690;DHT22;1861;50.240;8.596;2022-10-16T00:26:21;15.80;99.90
3690;DHT22;1861;50.240;8.596;2022-10-16T00:28:50;15.80;99.90
3690;DHT22;1861;50.240;8.596;2022-10-16T00:31:20;15.80;99.90
3690;DHT22;1861;50.240;8.596;2022-10-16T00:33:49;15.80;99.90
3690;DHT22;1861;50.240;8.596;2022-10-16T00:36:19;15.80;99.90
3690;DHT22;1861;50.240;8.596;2022-10-16T00:38:50;15.80;99.90
3690;DHT22;1861;50.240;8.596;2022-10-16T00:41:22;15.80;99.90
3690;DHT22;1861;50.240;8.596;2022-10-16T00:43:52;15.80;99.90
3690;DHT22;1861;50.240;8.596;2022-10-16T00:46:23;15.80;99.90
3690;DHT22;1861;50.240;8.596;2022-10-16T00:48:55;15.80;99.90
3690;DHT22;1861;50.240;8.596;2022-10-16T00:51:29;15.80;99.90
3690;DHT22;1861;50.240;8.596;2022-10-16T00:53:59;15.80;99.90
3690;DHT22;1861;50.240;8.596;2022-10-16T00:56:28;15.80;99.90
3690;DHT22;1861;50.240;8.596;2022-10-16T00:58:57;15.80;99.90
3690;DHT22;1861;50.240;8.596;2022-10-16T01:01:26;15.80;99.90
3690;DHT22;1861;50.240;8.596;2022-10-16T01:03:54;15.80;99.90
3690;DHT22;1861;50.240;8.596;2022-10-16T01:06:24;15.80;99.90
3690;DHT22;1861;50.240;8.596;2022-10-16T01:09:07;15.80;99.90
3690;DHT22;1861;50.240;8.596;2022-10-16T01:11:45;15.80;99.90
3690;DHT22;1861;50.240;8.596;2022-10-16T01:14:26;15.80;99.90
3690;DHT22;1861;50.240;8.596;2022-10-16T01:17:00;15.80;99.90
3690;DHT22;1861;50.240;8.596;2022-10-16T01:19:42;15.80;99.90
3690;DHT22;1861;50.240;8.596;2022-10-16T01:22:13;15.80;99.90
3690;DHT22;1861;50.240;8.596;2022-10-16T01:24:45;15.80;99.90
3690;DHT22;1861;50.240;8.596;2022-10-16T01:27:20;15.80;99.90
3690;DHT22;1861;50.240;8.596;2022-10-16T01:29:52;15.90;99.90
3690;DHT22;1861;50.240;8.596;2022-10-16T01:32:27;15.90;99.90
3690;DHT22;1861;50.240;8.596;2022-10-16T01:35:00;15.90;99.90
3690;DHT22;1861;50.240;8.596;2022-10-16T01:37:33;15.90;99.90
3690;DHT22;1861;50.240;8.596;2022-10-16T01:40:06;15.90;99.90
3690;DHT22;1861;50.240;8.596;2022-10-16T01:42:40;15.90;99.90
3690;DHT22;1861;50.240;8.596;2022-10-16T01:45:12;15.90;99.90
3690;DHT22;1861;50.240;8.596;2022-10-16T01:47:42;15.90;99.90
3690;DHT22;1861;50.240;8.596;2022-10-16T01:50:13;15.90;99.90
3690;DHT22;1861;50.240;8.596;2022-10-16T01:52:45;15.90;99.90
3690;DHT22;1861;50.240;8.596;2022-10-16T01:55:18;15.90;99.90
3690;DHT22;1861;50.240;8.596;2022-10-16T01:57:50;15.90;99.90
3690;DHT22;1861;50.240;8.596;2022-10-16T02:00:20;15.90;99.90
3690;DHT22;1861;50.240;8.596;2022-10-16T02:02:52;15.90;99.90
3690;DHT22;1861;50.240;8.596;2022-10-16T02:05:25;15.90;99.90
3690;DHT22;1861;50.240;8.596;2022-10-16T02:07:54;15.90;99.90
3690;DHT22;1861;50.240;8.596;2022-10-16T02:10:26;15.90;99.90
3690;DHT22;1861;50.240;8.596;2022-10-16T02:13:05;15.90;99.90
3690;DHT22;1861;50.240;8.596;2022-10-16T02:15:33;15.90;99.90
3690;DHT22;1861;50.240;8.596;2022-10-16T02:18:02;15.90;99.90
3690;DHT22;1861;50.240;8.596;2022-10-16T02:20:34;15.90;99.90
3690;DHT22;1861;50.240;8.596;2022-10-16T02:23:04;15.90;99.90
3690;DHT22;1861;50.240;8.596;2022-10-16T02:25:41;15.90;99.90
3690;DHT22;1861;50.240;8.596;2022-10-16T02:28:15;15.90;99.90
3690;DHT22;1861;50.240;8.596;2022-10-16T02:30:46;15.90;99.90
3690;DHT22;1861;50.240;8.596;2022-10-16T02:33:17;15.90;99.90
3690;DHT22;1861;50.240;8.596;2022-10-16T02:35:47;16.00;99.90
3690;DHT22;1861;50.240;8.596;2022-10-16T02:38:18;15.90;99.90
3690;DHT22;1861;50.240;8.596;2022-10-16T02:40:46;15.90;99.90
3690;DHT22;1861;50.240;8.596;2022-10-16T02:43:16;15.90;99.90
3690;DHT22;1861;50.240;8.596;2022-10-16T02:45:44;15.90;99.90
3690;DHT22;1861;50.240;8.596;2022-10-16T02:48:12;15.90;99.90
3690;DHT22;1861;50.240;8.596;2022-10-16T02:50:41;15.90;99.90
3690;DHT22;1861;50.240;8.596;2022-10-16T02:53:09;15.90;99.90
3690;DHT22;1861;50.240;8.596;2022-10-16T02:55:37;15.90;99.90
3690;DHT22;1861;50.240;8.596;2022-10-16T02:58:05;15.90;99.90
3690;DHT22;1861;50.240;8.596;2022-10-16T03:00:35;15.90;99.90
3690;DHT22;1861;50.240;8.596;2022-10-16T03:03:03;15.90;99.90
3690;DHT22;1861;50.240;8.596;2022-10-16T03:05:31;15.90;99.90
3690;DHT22;1861;50.240;8.596;2022-10-16T03:07:59;15.90;99.90
3690;DHT22;1861;50.240;8.596;2022-10-16T03:10:27;15.90;99.90
3690;DHT22;1861;50.240;8.596;2022-10-16T03:12:55;15.90;99.90
3690;DHT22;1861;50.240;8.596;2022-10-16T03:15:23;15.90;99.90
3690;DHT22;1861;50.240;8.596;2022-10-16T03:17:54;15.90;99.90
3690;DHT22;1861;50.240;8.596;2022-10-16T03:20:22;15.90;99.90
3690;DHT22;1861;50.240;8.596;2022-10-16T03:22:50;15.90;99.90
3690;DHT22;1861;50.240;8.596;2022-10-16T03:25:18;15.90;99.90
3690;DHT22;1861;50.240;8.596;2022-10-16T03:27:46;15.90;99.90
3690;DHT22;1861;50.240;8.596;2022-10-16T03:30:14;15.90;99.90
3690;DHT22;1861;50.240;8.596;2022-10-16T03:32:44;15.90;99.90
3690;DHT22;1861;50.240;8.596;2022-10-16T03:35:13;15.90;99.90
3690;DHT22;1861;50.240;8.596;2022-10-16T03:37:41;15.90;99.90
3690;DHT22;1861;50.240;8.596;2022-10-16T03:40:10;15.90;99.90
3690;DHT22;1861;50.240;8.596;2022-10-16T03:42:38;15.90;99.90
3690;DHT22;1861;50.240;8.596;2022-10-16T03:45:07;15.90;99.90
3690;DHT22;1861;50.240;8.596;2022-10-16T03:47:35;15.90;99.90
3690;DHT22;1861;50.240;8.596;2022-10-16T03:50:05;15.90;99.90
3690;DHT22;1861;50.240;8.596;2022-10-16T03:52:34;15.90;99.90
3690;DHT22;1861;50.240;8.596;2022-10-16T03:55:03;15.90;99.90
3690;DHT22;1861;50.240;8.596;2022-10-16T03:57:31;15.90;99.90
3690;DHT22;1861;50.240;8.596;2022-10-16T03:59:59;15.90;99.90
3690;DHT22;1861;50.240;8.596;2022-10-16T04:02:37;15.90;99.90
3690;DHT22;1861;50.240;8.596;2022-10-16T04:05:06;15.90;99.90
3690;DHT22;1861;50.240;8.596;2022-10-16T04:07:36;15.90;99.90
3690;DHT22;1861;50.240;8.596;2022-10-16T04:10:05;15.90;99.90
3690;DHT22;1861;50.240;8.596;2022-10-16T04:12:33;15.90;99.90
3690;DHT22;1861;50.240;8.596;2022-10-16T04:15:01;15.90;99.90
3690;DHT22;1861;50.240;8.596;2022-10-16T04:17:29;15.80;99.90
3690;DHT22;1861;50.240;8.596;2022-10-16T04:19:57;15.90;99.90
3690;DHT22;1861;50.240;8.596;2022-10-16T04:22:25;15.90;99.90
3690;DHT22;1861;50.240;8.596;2022-10-16T04:25:00;15.90;99.90
3690;DHT22;1861;50.240;8.596;2022-10-16T04:27:28;15.90;99.90
3690;DHT22;1861;50.240;8.596;2022-10-16T04:29:58;15.90;99.90
3690;DHT22;1861;50.240;8.596;2022-10-16T04:32:26;15.90;99.90
3690;DHT22;1861;50.240;8.596;2022-10-16T04:34:54;15.90;99.90
3690;DHT22;1861;50.240;8.596;2022-10-16T04:37:23;15.90;99.90
3690;DHT22;1861;50.240;8.596;2022-10-16T04:39:53;15.90;99.90
3690;DHT22;1861;50.240;8.596;2022-10-16T04:42:23;15.90;99.90
3690;DHT22;1861;50.240;8.596;2022-10-16T04:44:51;15.90;99.90
3690;DHT22;1861;50.240;8.596;2022-10-16T04:47:19;15.90;99.90
3690;DHT22;1861;50.240;8.596;2022-10-16T04:49:47;15.90;99.90
3690;DHT22;1861;50.240;8.596;2022-10-16T04:52:15;15.90;99.90
3690;DHT22;1861;50.240;8.596;2022-10-16T04:54:44;15.90;99.90
3690;DHT22;1861;50.240;8.596;2022-10-16T04:57:12;15.90;99.90
3690;DHT22;1861;50.240;8.596;2022-10-16T04:59:41;15.90;99.90
3690;DHT22;1861;50.240;8.596;2022-10-16T05:02:09;15.90;99.90
3690;DHT22;1861;50.240;8.596;2022-10-16T05:04:37;15.90;99.90
3690;DHT22;1861;50.240;8.596;2022-10-16T05:07:05;15.90;99.90
3690;DHT22;1861;50.240;8.596;2022-10-16T05:09:37;15.90;99.90
3690;DHT22;1861;50.240;8.596;2022-10-16T05:12:05;15.90;99.90
3690;DHT22;1861;50.240;8.596;2022-10-16T05:14:33;15.80;99.90
3690;DHT22;1861;50.240;8.596;2022-10-16T05:17:02;15.90;99.90
3690;DHT22;1861;50.240;8.596;2022-10-16T05:19:30;15.90;99.90
3690;DHT22;1861;50.240;8.596;2022-10-16T05:21:58;15.90;99.90
3690;DHT22;1861;50.240;8.596;2022-10-16T05:24:26;15.90;99.90
3690;DHT22;1861;50.240;8.596;2022-10-16T05:26:54;15.90;99.90
3690;DHT22;1861;50.240;8.596;2022-10-16T05:29:22;15.90;99.90
3690;DHT22;1861;50.240;8.596;2022-10-16T05:31:51;15.90;99.90
3690;DHT22;1861;50.240;8.596;2022-10-16T05:34:21;15.90;99.90
3690;DHT22;1861;50.240;8.596;2022-10-16T05:36:49;15.90;99.90
3690;DHT22;1861;50.240;8.596;2022-10-16T05:39:18;15.90;99.90
3690;DHT22;1861;50.240;8.596;2022-10-16T05:41:46;15.90;99.90
3690;DHT22;1861;50.240;8.596;2022-10-16T05:44:14;15.90;99.90
3690;DHT22;1861;50.240;8.596;2022-10-16T05:46:42;15.90;99.90
3690;DHT22;1861;50.240;8.596;2022-10-16T05:49:10;15.90;99.90
3690;DHT22;1861;50.240;8.596;2022-10-16T05:51:40;15.90;99.90
3690;DHT22;1861;50.240;8.596;2022-10-16T05:54:09;15.90;99.90
3690;DHT22;1861;50.240;8.596;2022-10-16T05:56:37;15.80;99.90
3690;DHT22;1861;50.240;8.596;2022-10-16T05:59:05;15.80;99.90
3690;DHT22;1861;50.240;8.596;2022-10-16T06:01:33;15.80;99.90
3690;DHT22;1861;50.240;8.596;2022-10-16T06:04:02;15.80;99.90
3690;DHT22;1861;50.240;8.596;2022-10-16T06:06:31;15.80;99.90
3690;DHT22;1861;50.240;8.596;2022-10-16T06:09:00;15.80;99.90
3690;DHT22;1861;50.240;8.596;2022-10-16T06:11:30;15.80;99.90
3690;DHT22;1861;50.240;8.596;2022-10-16T06:14:00;15.80;99.90
3690;DHT22;1861;50.240;8.596;2022-10-16T06:16:29;15.80;99.90
3690;DHT22;1861;50.240;8.596;2022-10-16T06:18:57;15.80;99.90
3690;DHT22;1861;50.240;8.596;2022-10-16T06:21:27;15.80;99.90
3690;DHT22;1861;50.240;8.596;2022-10-16T06:23:56;15.90;99.90
3690;DHT22;1861;50.240;8.596;2022-10-16T06:26:27;15.80;99.90
3690;DHT22;1861;50.240;8.596;2022-10-16T06:28:57;15.80;99.90
3690;DHT22;1861;50.240;8.596;2022-10-16T06:31:26;15.80;99.90
3690;DHT22;1861;50.240;8.596;2022-10-16T06:33:57;15.80;99.90
3690;DHT22;1861;50.240;8.596;2022-10-16T06:36:25;15.80;99.90
3690;DHT22;1861;50.240;8.596;2022-10-16T06:38:54;15.90;99.90
3690;DHT22;1861;50.240;8.596;2022-10-16T06:41:22;15.90;99.90
3690;DHT22;1861;50.240;8.596;2022-10-16T06:43:52;15.90;99.90
3690;DHT22;1861;50.240;8.596;2022-10-16T06:46:22;15.80;99.90
3690;DHT22;1861;50.240;8.596;2022-10-16T06:48:50;15.80;99.90
3690;DHT22;1861;50.240;8.596;2022-10-16T06:51:20;15.90;99.90
3690;DHT22;1861;50.240;8.596;2022-10-16T06:53:49;15.90;99.90
3690;DHT22;1861;50.240;8.596;2022-10-16T06:56:34;15.80;99.90
3690;DHT22;1861;50.240;8.596;2022-10-16T06:59:03;15.80;99.90
3690;DHT22;1861;50.240;8.596;2022-10-16T07:01:32;15.90;99.90
3690;DHT22;1861;50.240;8.596;2022-10-16T07:04:01;15.90;99.90
3690;DHT22;1861;50.240;8.596;2022-10-16T07:06:32;15.90;99.90
3690;DHT22;1861;50.240;8.596;2022-10-16T07:09:02;15.80;99.90
3690;DHT22;1861;50.240;8.596;2022-10-16T07:11:31;15.90;99.90
3690;DHT22;1861;50.240;8.596;2022-10-16T07:13:59;15.90;99.90
3690;DHT22;1861;50.240;8.596;2022-10-16T07:16:30;15.90;99.90
3690;DHT22;1861;50.240;8.596;2022-10-16T07:19:00;15.90;99.90
3690;DHT22;1861;50.240;8.596;2022-10-16T07:21:30;15.90;99.90
3690;DHT22;1861;50.240;8.596;2022-10-16T07:24:03;15.90;99.90
3690;DHT22;1861;50.240;8.596;2022-10-16T07:26:34;15.90;99.90
3690;DHT22;1861;50.240;8.596;2022-10-16T07:29:03;15.90;99.90
3690;DHT22;1861;50.240;8.596;2022-10-16T07:31:32;15.90;99.90
3690;DHT22;1861;50.240;8.596;2022-10-16T07:34:00;15.90;99.90
3690;DHT22;1861;50.240;8.596;2022-10-16T07:36:28;15.90;99.90
3690;DHT22;1861;50.240;8.596;2022-10-16T07:38:57;15.90;99.90
3690;DHT22;1861;50.240;8.596;2022-10-16T07:41:27;15.90;99.90
3690;DHT22;1861;50.240;8.596;2022-10-16T07:43:55;15.90;99.90
3690;DHT22;1861;50.240;8.596;2022-10-16T07:46:27;15.90;99.90
3690;DHT22;1861;50.240;8.596;2022-10-16T07:48:56;15.90;99.90
3690;DHT22;1861;50.240;8.596;2022-10-16T07:51:25;15.90;99.90
3690;DHT22;1861;50.240;8.596;2022-10-16T07:53:54;15.90;99.90
3690;DHT22;1861;50.240;8.596;2022-10-16T07:56:22;15.90;99.90
3690;DHT22;1861;50.240;8.596;2022-10-16T07:58:51;15.90;99.90
3690;DHT22;1861;50.240;8.596;2022-10-16T08:01:19;15.90;99.90
3690;DHT22;1861;50.240;8.596;2022-10-16T08:03:49;15.90;99.90
3690;DHT22;1861;50.240;8.596;2022-10-16T08:06:20;15.90;99.90
3690;DHT22;1861;50.240;8.596;2022-10-16T08:08:54;15.90;99.90
3690;DHT22;1861;50.240;8.596;2022-10-16T08:11:22;15.90;99.90
3690;DHT22;1861;50.240;8.596;2022-10-16T08:13:51;15.90;99.90
3690;DHT22;1861;50.240;8.596;2022-10-16T08:16:19;15.90;99.90
3690;DHT22;1861;50.240;8.596;2022-10-16T08:18:47;16.00;99.90
3690;DHT22;1861;50.240;8.596;2022-10-16T08:21:21;16.00;99.90
3690;DHT22;1861;50.240;8.596;2022-10-16T08:23:50;16.00;99.90
3690;DHT22;1861;50.240;8.596;2022-10-16T08:26:25;16.00;99.90
3690;DHT22;1861;50.240;8.596;2022-10-16T08:28:54;16.00;99.90
3690;DHT22;1861;50.240;8.596;2022-10-16T08:31:23;16.00;99.90
3690;DHT22;1861;50.240;8.596;2022-10-16T08:33:52;16.00;99.90
3690;DHT22;1861;50.240;8.596;2022-10-16T08:36:22;16.00;99.90
3690;DHT22;1861;50.240;8.596;2022-10-16T08:38:50;16.00;99.90
3690;DHT22;1861;50.240;8.596;2022-10-16T08:41:31;16.00;99.90
3690;DHT22;1861;50.240;8.596;2022-10-16T08:44:19;16.00;99.90
3690;DHT22;1861;50.240;8.596;2022-10-16T08:46:54;16.00;99.90
3690;DHT22;1861;50.240;8.596;2022-10-16T08:49:27;16.00;99.90
3690;DHT22;1861;50.240;8.596;2022-10-16T08:51:57;16.00;99.90
3690;DHT22;1861;50.240;8.596;2022-10-16T08:54:29;16.00;99.90
3690;DHT22;1861;50.240;8.596;2022-10-16T08:57:07;16.00;99.90
3690;DHT22;1861;50.240;8.596;2022-10-16T08:59:36;16.00;99.90
3690;DHT22;1861;50.240;8.596;2022-10-16T09:02:19;16.10;99.90
3690;DHT22;1861;50.240;8.596;2022-10-16T09:04:54;16.10;99.90
3690;DHT22;1861;50.240;8.596;2022-10-16T09:07:30;16.10;99.90
3690;DHT22;1861;50.240;8.596;2022-10-16T09:10:11;16.00;99.90
3690;DHT22;1861;50.240;8.596;2022-10-16T09:12:48;16.00;99.90
3690;DHT22;1861;50.240;8.596;2022-10-16T09:15:25;16.10;99.90
3690;DHT22;1861;50.240;8.596;2022-10-16T09:18:01;16.10;99.90
3690;DHT22;1861;50.240;8.596;2022-10-16T09:20:38;16.10;99.90
3690;DHT22;1861;50.240;8.596;2022-10-16T09:23:17;16.10;99.90
3690;DHT22;1861;50.240;8.596;2022-10-16T09:25:48;16.10;99.90
3690;DHT22;1861;50.240;8.596;2022-10-16T09:28:18;16.10;99.90
3690;DHT22;1861;50.240;8.596;2022-10-16T09:30:47;16.10;99.90
3690;DHT22;1861;50.240;8.596;2022-10-16T09:33:18;16.10;99.90
3690;DHT22;1861;50.240;8.596;2022-10-16T09:35:49;16.20;99.90
3690;DHT22;1861;50.240;8.596;2022-10-16T09:38:24;16.20;99.90
3690;DHT22;1861;50.240;8.596;2022-10-16T09:40:53;16.20;99.90
3690;DHT22;1861;50.240;8.596;2022-10-16T09:43:34;16.20;99.90
3690;DHT22;1861;50.240;8.596;2022-10-16T09:46:05;16.20;99.90
3690;DHT22;1861;50.240;8.596;2022-10-16T09:48:36;16.20;99.90
3690;DHT22;1861;50.240;8.596;2022-10-16T09:51:06;16.30;99.90
3690;DHT22;1861;50.240;8.596;2022-10-16T09:53:41;16.30;99.90
3690;DHT22;1861;50.240;8.596;2022-10-16T09:56:10;16.30;99.90
3690;DHT22;1861;50.240;8.596;2022-10-16T09:58:43;16.30;99.90
3690;DHT22;1861;50.240;8.596;2022-10-16T10:01:17;16.30;99.90
3690;DHT22;1861;50.240;8.596;2022-10-16T10:03:45;16.30;99.90
3690;DHT22;1861;50.240;8.596;2022-10-16T10:06:18;16.30;99.90
3690;DHT22;1861;50.240;8.596;2022-10-16T10:09:04;16.30;99.90
3690;DHT22;1861;50.240;8.596;2022-10-16T10:11:44;16.30;99.90
3690;DHT22;1861;50.240;8.596;2022-10-16T10:14:27;16.30;99.90
3690;DHT22;1861;50.240;8.596;2022-10-16T10:17:11;16.40;99.90
3690;DHT22;1861;50.240;8.596;2022-10-16T10:19:41;16.40;99.90
3690;DHT22;1861;50.240;8.596;2022-10-16T10:22:19;16.40;99.90
3690;DHT22;1861;50.240;8.596;2022-10-16T10:25:38;16.40;99.90
3690;DHT22;1861;50.240;8.596;2022-10-16T10:28:17;16.40;99.90
3690;DHT22;1861;50.240;8.596;2022-10-16T10:30:56;16.50;99.90
3690;DHT22;1861;50.240;8.596;2022-10-16T10:33:31;16.50;99.90
3690;DHT22;1861;50.240;8.596;2022-10-16T10:36:13;16.50;99.90
3690;DHT22;1861;50.240;8.596;2022-10-16T10:38:50;16.50;99.90
3690;DHT22;1861;50.240;8.596;2022-10-16T10:41:44;16.50;99.90
3690;DHT22;1861;50.240;8.596;2022-10-16T10:44:26;16.60;99.90
3690;DHT22;1861;50.240;8.596;2022-10-16T10:47:07;16.60;99.90
3690;DHT22;1861;50.240;8.596;2022-10-16T10:49:50;16.60;99.90
3690;DHT22;1861;50.240;8.596;2022-10-16T10:52:36;16.60;99.90
3690;DHT22;1861;50.240;8.596;2022-10-16T10:55:14;16.70;99.90
3690;DHT22;1861;50.240;8.596;2022-10-16T10:58:03;16.70;99.90
3690;DHT22;1861;50.240;8.596;2022-10-16T11:00:42;16.70;99.90
3690;DHT22;1861;50.240;8.596;2022-10-16T11:03:21;16.70;99.90
3690;DHT22;1861;50.240;8.596;2022-10-16T11:06:00;16.70;99.90
3690;DHT22;1861;50.240;8.596;2022-10-16T11:08:35;16.70;99.90
3690;DHT22;1861;50.240;8.596;2022-10-16T11:11:09;16.70;99.90
3690;DHT22;1861;50.240;8.596;2022-10-16T11:13:42;16.70;99.90
3690;DHT22;1861;50.240;8.596;2022-10-16T11:16:15;16.80;99.90
3690;DHT22;1861;50.240;8.596;2022-10-16T11:18:52;16.80;99.90
3690;DHT22;1861;50.240;8.596;2022-10-16T11:21:23;16.80;99.90
3690;DHT22;1861;50.240;8.596;2022-10-16T11:24:00;16.80;99.90
3690;DHT22;1861;50.240;8.596;2022-10-16T11:26:34;16.90;99.90
3690;DHT22;1861;50.240;8.596;2022-10-16T11:29:10;16.90;99.90
3690;DHT22;1861;50.240;8.596;2022-10-16T11:31:43;16.90;99.90
3690;DHT22;1861;50.240;8.596;2022-10-16T11:34:17;16.90;99.90
3690;DHT22;1861;50.240;8.596;2022-10-16T11:36:53;16.90;99.90
3690;DHT22;1861;50.240;8.596;2022-10-16T11:39:26;16.90;99.90
3690;DHT22;1861;50.240;8.596;2022-10-16T11:41:59;16.90;99.90
3690;DHT22;1861;50.240;8.596;2022-10-16T11:44:42;17.00;99.90
3690;DHT22;1861;50.240;8.596;2022-10-16T11:47:23;17.00;99.90
3690;DHT22;1861;50.240;8.596;2022-10-16T11:50:20;16.90;99.90
3690;DHT22;1861;50.240;8.596;2022-10-16T11:52:55;16.90;99.90
3690;DHT22;1861;50.240;8.596;2022-10-16T11:55:29;16.90;99.90
3690;DHT22;1861;50.240;8.596;2022-10-16T11:58:01;16.90;99.90
3690;DHT22;1861;50.240;8.596;2022-10-16T12:00:36;16.90;99.90
3690;DHT22;1861;50.240;8.596;2022-10-16T12:03:15;16.90;99.90
3690;DHT22;1861;50.240;8.596;2022-10-16T12:05:59;16.90;99.90
3690;DHT22;1861;50.240;8.596;2022-10-16T12:08:29;16.90;99.90
3690;DHT22;1861;50.240;8.596;2022-10-16T12:11:07;16.90;99.90
3690;DHT22;1861;50.240;8.596;2022-10-16T12:13:37;16.90;99.90
3690;DHT22;1861;50.240;8.596;2022-10-16T12:16:20;16.90;99.90
3690;DHT22;1861;50.240;8.596;2022-10-16T12:18:48;16.90;99.90
3690;DHT22;1861;50.240;8.596;2022-10-16T12:21:30;16.90;99.90
3690;DHT22;1861;50.240;8.596;2022-10-16T12:24:00;16.90;99.90
3690;DHT22;1861;50.240;8.596;2022-10-16T12:26:32;16.90;99.90
3690;DHT22;1861;50.240;8.596;2022-10-16T12:29:13;16.90;99.90
3690;DHT22;1861;50.240;8.596;2022-10-16T12:31:46;16.90;99.90
3690;DHT22;1861;50.240;8.596;2022-10-16T12:34:26;16.90;99.90
3690;DHT22;1861;50.240;8.596;2022-10-16T12:36:55;16.90;99.90
3690;DHT22;1861;50.240;8.596;2022-10-16T12:39:24;16.90;99.90
3690;DHT22;1861;50.240;8.596;2022-10-16T12:42:02;16.90;99.90
3690;DHT22;1861;50.240;8.596;2022-10-16T12:44:35;16.90;99.90
3690;DHT22;1861;50.240;8.596;2022-10-16T12:47:04;16.90;99.90
3690;DHT22;1861;50.240;8.596;2022-10-16T12:49:37;17.00;99.90
3690;DHT22;1861;50.240;8.596;2022-10-16T12:52:25;17.00;99.90
3690;DHT22;1861;50.240;8.596;2022-10-16T12:54:56;17.00;99.90
3690;DHT22;1861;50.240;8.596;2022-10-16T12:57:36;17.00;99.90
3690;DHT22;1861;50.240;8.596;2022-10-16T13:00:13;17.00;99.90
3690;DHT22;1861;50.240;8.596;2022-10-16T13:05:54;17.00;99.90
3690;DHT22;1861;50.240;8.596;2022-10-16T13:08:39;17.00;99.90
3690;DHT22;1861;50.240;8.596;2022-10-16T13:11:17;17.00;99.90
3690;DHT22;1861;50.240;8.596;2022-10-16T13:14:09;17.00;99.90
3690;DHT22;1861;50.240;8.596;2022-10-16T13:16:50;17.00;99.90
3690;DHT22;1861;50.240;8.596;2022-10-16T13:19:29;17.00;99.90
3690;DHT22;1861;50.240;8.596;2022-10-16T13:22:05;17.00;99.90
3690;DHT22;1861;50.240;8.596;2022-10-16T13:24:46;17.00;99.90
3690;DHT22;1861;50.240;8.596;2022-10-16T13:27:26;17.00;99.90
3690;DHT22;1861;50.240;8.596;2022-10-16T13:30:02;17.00;99.90
3690;DHT22;1861;50.240;8.596;2022-10-16T13:32:37;17.00;99.90
3690;DHT22;1861;50.240;8.596;2022-10-16T13:35:20;17.00;99.90
3690;DHT22;1861;50.240;8.596;2022-10-16T13:37:49;17.10;99.90
3690;DHT22;1861;50.240;8.596;2022-10-16T13:40:22;17.00;99.90
3690;DHT22;1861;50.240;8.596;2022-10-16T13:42:51;17.10;99.90
3690;DHT22;1861;50.240;8.596;2022-10-16T13:45:22;17.10;99.90
3690;DHT22;1861;50.240;8.596;2022-10-16T13:48:01;17.10;99.90
3690;DHT22;1861;50.240;8.596;2022-10-16T13:50:31;17.10;99.90
3690;DHT22;1861;50.240;8.596;2022-10-16T13:53:06;17.00;99.90
3690;DHT22;1861;50.240;8.596;2022-10-16T13:55:34;17.10;99.90
3690;DHT22;1861;50.240;8.596;2022-10-16T13:58:11;17.10;99.90
3690;DHT22;1861;50.240;8.596;2022-10-16T14:00:42;17.10;99.90
3690;DHT22;1861;50.240;8.596;2022-10-16T14:03:20;17.10;99.90
3690;DHT22;1861;50.240;8.596;2022-10-16T14:05:52;17.10;99.90
3690;DHT22;1861;50.240;8.596;2022-10-16T14:08:22;17.10;99.90
3690;DHT22;1861;50.240;8.596;2022-10-16T14:10:53;17.10;99.90
3690;DHT22;1861;50.240;8.596;2022-10-16T14:13:29;17.10;99.90
3690;DHT22;1861;50.240;8.596;2022-10-16T14:15:59;17.10;99.90
3690;DHT22;1861;50.240;8.596;2022-10-16T14:18:29;17.10;99.90
3690;DHT22;1861;50.240;8.596;2022-10-16T14:21:07;17.10;99.90
3690;DHT22;1861;50.240;8.596;2022-10-16T14:23:40;17.10;99.90
3690;DHT22;1861;50.240;8.596;2022-10-16T14:26:14;17.00;99.90
3690;DHT22;1861;50.240;8.596;2022-10-16T14:28:47;17.10;99.90
3690;DHT22;1861;50.240;8.596;2022-10-16T14:31:29;17.10;99.90
3690;DHT22;1861;50.240;8.596;2022-10-16T14:33:58;17.00;99.90
3690;DHT22;1861;50.240;8.596;2022-10-16T14:36:28;17.10;99.90
3690;DHT22;1861;50.240;8.596;2022-10-16T14:39:00;17.10;99.90
3690;DHT22;1861;50.240;8.596;2022-10-16T14:41:30;17.10;99.90
3690;DHT22;1861;50.240;8.596;2022-10-16T14:44:02;17.10;99.90
3690;DHT22;1861;50.240;8.596;2022-10-16T14:46:34;17.10;99.90
3690;DHT22;1861;50.240;8.596;2022-10-16T14:49:14;17.00;99.90
3690;DHT22;1861;50.240;8.596;2022-10-16T14:51:44;17.10;99.90
3690;DHT22;1861;50.240;8.596;2022-10-16T14:54:13;17.10;99.90
3690;DHT22;1861;50.240;8.596;2022-10-16T14:56:46;17.10;99.90
3690;DHT22;1861;50.240;8.596;2022-10-16T14:59:17;17.10;99.90
3690;DHT22;1861;50.240;8.596;2022-10-16T15:01:46;17.10;99.90
3690;DHT22;1861;50.240;8.596;2022-10-16T15:04:15;17.10;99.90
3690;DHT22;1861;50.240;8.596;2022-10-16T15:06:45;17.10;99.90
3690;DHT22;1861;50.240;8.596;2022-10-16T15:09:14;17.10;99.90
3690;DHT22;1861;50.240;8.596;2022-10-16T15:11:42;17.10;99.90
3690;DHT22;1861;50.240;8.596;2022-10-16T15:14:22;17.10;99.90
3690;DHT22;1861;50.240;8.596;2022-10-16T15:16:50;17.10;99.90
3690;DHT22;1861;50.240;8.596;2022-10-16T15:19:19;17.10;99.90
3690;DHT22;1861;50.240;8.596;2022-10-16T15:21:48;17.10;99.90
3690;DHT22;1861;50.240;8.596;2022-10-16T15:24:17;17.10;99.90
3690;DHT22;1861;50.240;8.596;2022-10-16T15:26:47;17.10;99.90
3690;DHT22;1861;50.240;8.596;2022-10-16T15:29:16;17.10;99.90
3690;DHT22;1861;50.240;8.596;2022-10-16T15:31:44;17.10;99.90
3690;DHT22;1861;50.240;8.596;2022-10-16T15:34:14;17.10;99.90
3690;DHT22;1861;50.240;8.596;2022-10-16T15:36:42;17.10;99.90
3690;DHT22;1861;50.240;8.596;2022-10-16T15:39:14;17.10;99.90
3690;DHT22;1861;50.240;8.596;2022-10-16T15:41:44;17.10;99.90
3690;DHT22;1861;50.240;8.596;2022-10-16T15:44:12;17.00;99.90
3690;DHT22;1861;50.240;8.596;2022-10-16T15:46:40;17.00;99.90
3690;DHT22;1861;50.240;8.596;2022-10-16T15:49:08;17.00;99.90
3690;DHT22;1861;50.240;8.596;2022-10-16T15:51:38;17.00;99.90
3690;DHT22;1861;50.240;8.596;2022-10-16T15:54:07;17.00;99.90
3690;DHT22;1861;50.240;8.596;2022-10-16T15:56:36;17.00;99.90
3690;DHT22;1861;50.240;8.596;2022-10-16T15:59:05;17.00;99.90
3690;DHT22;1861;50.240;8.596;2022-10-16T16:01:34;17.00;99.90
3690;DHT22;1861;50.240;8.596;2022-10-16T16:04:05;17.00;99.90
3690;DHT22;1861;50.240;8.596;2022-10-16T16:06:51;17.00;99.90
3690;DHT22;1861;50.240;8.596;2022-10-16T16:09:25;17.00;99.90
3690;DHT22;1861;50.240;8.596;2022-10-16T16:11:54;17.00;99.90
3690;DHT22;1861;50.240;8.596;2022-10-16T16:14:22;17.00;99.90
3690;DHT22;1861;50.240;8.596;2022-10-16T16:16:53;17.00;99.90
3690;DHT22;1861;50.240;8.596;2022-10-16T16:19:21;17.00;99.90
3690;DHT22;1861;50.240;8.596;2022-10-16T16:21:49;17.00;99.90
3690;DHT22;1861;50.240;8.596;2022-10-16T16:24:18;17.00;99.90
3690;DHT22;1861;50.240;8.596;2022-10-16T16:26:46;17.00;99.90
3690;DHT22;1861;50.240;8.596;2022-10-16T16:29:16;17.00;99.90
3690;DHT22;1861;50.240;8.596;2022-10-16T16:31:44;17.00;99.90
3690;DHT22;1861;50.240;8.596;2022-10-16T16:34:13;17.00;99.90
3690;DHT22;1861;50.240;8.596;2022-10-16T16:36:42;17.00;99.90